Time;durP1;ratioP1;P1;durP2;ratioP2;P2;SDS_P1;SDS_P2;PMS_P1;PMS_P2;Temp;Humidity;BMP_temperature;BMP_pressure;BME280_temperature;BME280_humidity;BME280_pressure;Samples;Min_cycle;Max_cycle;Signal;HPM_P1;HPM_P2
2022/10/20 00:00:52;;;;;;;16.87;15.07;;;12.00;99.90;;;;;;6155818;23;20460;-86
2022/10/20 00:03:19;;;;;;;16.47;14.87;;;12.00;99.90;;;;;;6156495;23;20452;-86
2022/10/20 00:05:52;;;;;;;18.47;13.73;;;12.00;99.90;;;;;;6156444;23;20411;-86
2022/10/20 00:08:19;;;;;;;17.90;15.33;;;12.00;99.90;;;;;;6155960;23;20390;-86
2022/10/20 00:10:54;;;;;;;16.57;14.93;;;11.90;99.90;;;;;;6158547;23;20414;-86
2022/10/20 00:13:23;;;;;;;22.27;15.67;;;11.90;99.90;;;;;;6158565;23;20472;-86
2022/10/20 00:15:51;;;;;;;20.90;15.70;;;11.90;99.90;;;;;;6159131;23;20422;-86
2022/10/20 00:18:20;;;;;;;16.83;15.10;;;11.90;99.90;;;;;;6157322;23;20405;-86
2022/10/20 00:20:47;;;;;;;19.00;14.83;;;11.90;99.90;;;;;;6156619;23;20867;-86
2022/10/20 00:23:14;;;;;;;17.17;15.47;;;11.90;99.90;;;;;;6155395;23;20513;-86
2022/10/20 00:25:42;;;;;;;20.50;15.30;;;11.80;99.90;;;;;;6155745;23;20421;-86
2022/10/20 00:28:10;;;;;;;18.10;15.50;;;11.80;99.90;;;;;;6154984;23;20421;-86
2022/10/20 00:30:37;;;;;;;15.87;14.27;;;11.80;99.90;;;;;;6155740;23;20421;-86
2022/10/20 00:33:05;;;;;;;19.27;15.63;;;11.80;99.90;;;;;;6155824;23;20438;-86
2022/10/20 00:35:33;;;;;;;17.00;15.23;;;11.80;99.90;;;;;;6155763;23;20419;-86
2022/10/20 00:38:00;;;;;;;19.00;16.40;;;11.70;99.90;;;;;;6155564;23;20417;-86
2022/10/20 00:40:35;;;;;;;24.10;14.93;;;11.70;99.90;;;;;;6154962;23;20909;-86
2022/10/20 00:43:02;;;;;;;15.73;14.27;;;11.70;99.90;;;;;;6155302;23;20467;-86
2022/10/20 00:45:30;;;;;;;16.83;15.13;;;11.70;99.90;;;;;;6155349;23;20418;-86
2022/10/20 00:48:10;;;;;;;18.10;16.17;;;11.70;99.90;;;;;;6154983;23;20418;-86
2022/10/20 00:50:43;;;;;;;17.92;16.02;;;11.70;99.90;;;;;;6154888;23;20428;-86
2022/10/20 00:53:11;;;;;;;18.60;13.97;;;11.60;99.90;;;;;;6155647;23;20196;-86
2022/10/20 00:55:41;;;;;;;17.30;15.50;;;11.60;99.90;;;;;;6155099;23;20413;-85
2022/10/20 00:58:08;;;;;;;17.40;14.63;;;11.60;99.90;;;;;;6155373;23;20408;-86
2022/10/20 01:00:40;;;;;;;18.43;14.90;;;11.50;99.90;;;;;;6155537;23;20418;-86
2022/10/20 01:03:14;;;;;;;16.03;14.33;;;11.50;99.90;;;;;;6155015;23;20788;-86
2022/10/20 01:05:56;;;;;;;17.63;14.60;;;11.50;99.90;;;;;;6162063;23;20454;-86
2022/10/20 01:08:23;;;;;;;21.33;15.88;;;11.40;99.90;;;;;;6160998;23;20382;-86
2022/10/20 01:11:01;;;;;;;18.37;15.87;;;11.40;99.90;;;;;;6155068;23;20212;-86
2022/10/20 01:17:03;;;;;;;19.20;16.87;;;11.40;99.90;;;;;;6154715;23;20350;-86
2022/10/20 01:19:53;;;;;;;22.00;19.70;;;11.30;99.90;;;;;;6154399;23;20476;-86
2022/10/20 01:22:53;;;;;;;24.63;18.60;;;11.30;99.90;;;;;;6155423;23;20463;-86
2022/10/20 01:25:30;;;;;;;23.73;16.90;;;11.20;99.90;;;;;;6155259;23;20413;-86
2022/10/20 01:28:02;;;;;;;24.13;17.10;;;11.30;99.90;;;;;;6155028;23;20722;-86
2022/10/20 01:30:29;;;;;;;21.17;15.90;;;11.30;99.90;;;;;;6155165;23;20392;-86
2022/10/20 01:33:13;;;;;;;18.83;15.67;;;11.30;99.90;;;;;;6154713;23;20448;-86
2022/10/20 01:35:53;;;;;;;22.27;18.73;;;11.30;99.90;;;;;;6155171;23;20726;-86
2022/10/20 01:38:33;;;;;;;24.50;17.53;;;11.30;99.90;;;;;;6154943;23;20414;-86
2022/10/20 01:41:02;;;;;;;20.17;16.90;;;11.30;99.90;;;;;;6155131;23;20469;-86
2022/10/20 01:43:36;;;;;;;21.83;17.47;;;11.30;99.90;;;;;;6154861;23;20420;-86
2022/10/20 01:48:47;;;;;;;23.47;18.17;;;11.30;99.90;;;;;;6154193;23;20766;-86
2022/10/20 01:51:14;;;;;;;20.77;16.40;;;11.30;99.90;;;;;;6155591;23;20743;-86
2022/10/20 01:53:41;;;;;;;23.67;18.00;;;11.30;99.90;;;;;;6154703;23;20451;-86
2022/10/20 01:56:20;;;;;;;24.73;17.47;;;11.30;99.90;;;;;;6155005;23;20417;-86
2022/10/20 01:59:19;;;;;;;19.57;16.37;;;11.30;99.90;;;;;;6154619;23;20440;-86
2022/10/20 02:02:02;;;;;;;20.63;16.80;;;11.30;99.90;;;;;;6145604;23;20779;-86
2022/10/20 02:04:37;;;;;;;24.47;17.40;;;11.30;99.90;;;;;;6154754;23;20444;-86
2022/10/20 02:07:11;;;;;;;21.73;16.77;;;11.30;99.90;;;;;;6154874;23;20720;-86
2022/10/20 02:09:44;;;;;;;19.40;15.80;;;11.30;99.90;;;;;;6154556;23;20256;-86
2022/10/20 02:12:15;;;;;;;19.93;16.47;;;11.30;99.90;;;;;;6154881;23;20401;-86
2022/10/20 02:14:43;;;;;;;26.40;18.70;;;11.30;99.90;;;;;;6154629;23;20442;-86
2022/10/20 02:17:14;;;;;;;21.57;17.30;;;11.20;99.90;;;;;;6174948;23;20420;-86
2022/10/20 02:19:43;;;;;;;23.40;18.90;;;11.20;99.90;;;;;;6177869;23;20460;-86
2022/10/20 02:22:13;;;;;;;25.73;20.67;;;11.20;99.90;;;;;;6176983;23;20459;-86
2022/10/20 02:24:43;;;;;;;22.37;19.23;;;11.20;99.90;;;;;;6180939;23;20418;-86
2022/10/20 02:27:14;;;;;;;21.20;19.00;;;11.20;99.90;;;;;;6159176;23;20393;-86
2022/10/20 02:29:56;;;;;;;22.00;18.77;;;11.20;99.90;;;;;;6154460;23;20397;-86
2022/10/20 02:32:25;;;;;;;22.03;18.13;;;11.20;99.90;;;;;;6154772;23;20419;-86
2022/10/20 02:34:52;;;;;;;20.83;18.47;;;11.20;99.90;;;;;;6154725;23;20417;-86
2022/10/20 02:37:19;;;;;;;28.30;18.73;;;11.20;99.90;;;;;;6154247;23;20420;-86
2022/10/20 02:39:46;;;;;;;22.47;17.77;;;11.30;99.90;;;;;;6154403;23;20414;-86
2022/10/20 02:42:17;;;;;;;21.40;18.33;;;11.30;99.90;;;;;;6154295;23;20453;-86
2022/10/20 02:44:44;;;;;;;23.50;17.80;;;11.30;99.90;;;;;;6154763;23;20468;-86
2022/10/20 02:47:11;;;;;;;21.60;18.60;;;11.40;99.90;;;;;;6154249;23;20430;-86
2022/10/20 02:49:39;;;;;;;27.50;21.00;;;11.30;99.90;;;;;;6154107;23;20719;-86
2022/10/20 02:52:06;;;;;;;26.60;19.70;;;11.30;99.90;;;;;;6166057;23;20385;-86
2022/10/20 02:54:33;;;;;;;24.13;18.53;;;11.40;99.90;;;;;;6158051;23;20434;-86
2022/10/20 02:56:59;;;;;;;22.80;18.80;;;11.40;99.90;;;;;;6154511;23;20421;-86
2022/10/20 02:59:26;;;;;;;27.13;18.07;;;11.40;99.90;;;;;;6154087;23;20440;-86
2022/10/20 03:01:53;;;;;;;21.10;16.77;;;11.40;99.90;;;;;;6154206;23;20536;-86
2022/10/20 03:04:20;;;;;;;25.80;18.43;;;11.40;99.90;;;;;;6153997;23;20436;-86
2022/10/20 03:06:48;;;;;;;20.30;16.83;;;11.40;99.90;;;;;;6154559;23;20497;-86
2022/10/20 03:09:15;;;;;;;21.10;17.63;;;11.40;99.90;;;;;;6153859;23;20436;-86
2022/10/20 03:11:43;;;;;;;21.50;16.57;;;11.40;99.90;;;;;;6154537;23;20475;-85
2022/10/20 03:14:10;;;;;;;25.37;19.97;;;11.40;99.90;;;;;;6154119;23;20954;-86
2022/10/20 03:16:38;;;;;;;21.23;16.57;;;11.40;99.90;;;;;;6154479;23;20487;-86
2022/10/20 03:19:05;;;;;;;22.83;17.27;;;11.40;99.90;;;;;;6153140;23;20817;-86
2022/10/20 03:21:32;;;;;;;24.87;17.93;;;11.40;99.90;;;;;;6154405;23;20497;-86
2022/10/20 03:24:00;;;;;;;24.47;18.13;;;11.40;99.90;;;;;;6154296;23;20425;-86
2022/10/20 03:26:27;;;;;;;18.73;16.73;;;11.50;99.90;;;;;;6153990;23;20406;-86
2022/10/20 03:28:55;;;;;;;25.37;18.03;;;11.40;99.90;;;;;;6153841;23;20497;-86
2022/10/20 03:31:22;;;;;;;26.83;19.00;;;11.50;99.90;;;;;;6154363;23;20435;-86
2022/10/20 03:33:49;;;;;;;22.23;19.30;;;11.40;99.90;;;;;;6153956;23;20436;-86
2022/10/20 03:36:16;;;;;;;27.33;20.13;;;11.50;99.90;;;;;;6154302;23;20417;-86
2022/10/20 03:38:43;;;;;;;24.50;17.40;;;11.50;99.90;;;;;;6154011;23;20748;-86
2022/10/20 03:41:13;;;;;;;25.87;19.77;;;11.50;99.90;;;;;;6154141;23;20752;-86
2022/10/20 03:43:40;;;;;;;25.00;18.40;;;11.50;99.90;;;;;;6153811;23;20492;-86
2022/10/20 03:46:09;;;;;;;26.27;19.50;;;11.60;99.90;;;;;;6154214;23;20920;-86
2022/10/20 03:48:37;;;;;;;23.57;19.67;;;11.60;99.90;;;;;;6153630;23;20497;-86
2022/10/20 03:51:07;;;;;;;32.23;21.20;;;11.60;99.90;;;;;;6154171;23;20417;-86
2022/10/20 03:53:34;;;;;;;22.43;19.10;;;11.50;99.90;;;;;;6153292;23;20448;-86
2022/10/20 03:56:06;;;;;;;25.80;19.83;;;11.50;99.90;;;;;;6153876;23;20905;-86
2022/10/20 03:58:34;;;;;;;23.73;19.50;;;11.50;99.90;;;;;;6153281;23;20493;-86
2022/10/20 04:01:01;;;;;;;28.13;19.80;;;11.60;99.90;;;;;;6154361;23;20450;-86
2022/10/20 04:03:28;;;;;;;26.23;20.80;;;11.60;99.90;;;;;;6153753;23;20968;-86
2022/10/20 04:05:55;;;;;;;31.03;19.37;;;11.60;99.90;;;;;;6154351;23;20788;-86
2022/10/20 04:08:22;;;;;;;25.40;19.00;;;11.70;99.90;;;;;;6153945;23;20484;-86
2022/10/20 04:10:49;;;;;;;29.60;22.80;;;11.70;99.90;;;;;;6153925;23;20434;-86
2022/10/20 04:13:15;;;;;;;29.00;22.90;;;11.80;99.90;;;;;;6153691;23;20496;-86
2022/10/20 04:15:44;;;;;;;27.83;21.27;;;11.80;99.90;;;;;;6154493;23;20417;-86
2022/10/20 04:18:11;;;;;;;24.17;19.07;;;11.80;99.90;;;;;;6155170;23;20485;-86
2022/10/20 04:20:37;;;;;;;25.30;19.00;;;11.80;99.90;;;;;;6155735;23;20422;-86
2022/10/20 04:23:04;;;;;;;26.13;20.43;;;11.80;99.90;;;;;;6155765;23;21024;-86
2022/10/20 04:25:31;;;;;;;22.27;18.93;;;11.80;99.90;;;;;;6155571;23;20429;-86
2022/10/20 04:27:59;;;;;;;22.30;18.70;;;11.80;99.90;;;;;;6155456;23;20450;-86
2022/10/20 04:30:26;;;;;;;23.73;18.50;;;11.80;99.90;;;;;;6155985;23;20440;-86
2022/10/20 04:32:54;;;;;;;27.40;19.37;;;11.90;99.90;;;;;;6156008;23;20462;-86
2022/10/20 04:35:21;;;;;;;25.33;19.33;;;11.80;99.90;;;;;;6156030;23;20748;-86
2022/10/20 04:37:48;;;;;;;25.33;19.60;;;11.90;99.90;;;;;;6165144;23;20401;-86
2022/10/20 04:40:15;;;;;;;26.40;19.97;;;11.90;99.90;;;;;;6159237;23;20420;-86
2022/10/20 04:42:41;;;;;;;21.90;19.43;;;11.90;99.90;;;;;;6155763;23;20813;-86
2022/10/20 04:45:09;;;;;;;24.40;20.73;;;11.90;99.90;;;;;;6155915;23;20905;-86
2022/10/20 04:47:36;;;;;;;28.73;19.93;;;12.00;99.90;;;;;;6155162;23;20500;-86
2022/10/20 04:50:06;;;;;;;26.40;20.00;;;11.90;99.90;;;;;;6155730;23;20791;-86
2022/10/20 04:52:32;;;;;;;29.27;20.30;;;11.90;99.90;;;;;;6155148;23;20955;-86
2022/10/20 04:54:59;;;;;;;29.50;19.77;;;11.90;99.90;;;;;;6155723;23;20435;-86
2022/10/20 04:57:27;;;;;;;28.63;20.67;;;11.90;99.90;;;;;;6155640;23;20441;-86
2022/10/20 04:59:54;;;;;;;25.60;20.20;;;11.80;99.90;;;;;;6155479;23;20504;-86
2022/10/20 05:02:20;;;;;;;31.57;22.40;;;11.80;99.90;;;;;;6155402;23;20445;-86
2022/10/20 05:04:47;;;;;;;26.33;20.27;;;11.80;99.90;;;;;;6155230;23;20437;-86
2022/10/20 05:07:15;;;;;;;26.10;21.97;;;11.80;99.90;;;;;;6154957;23;20426;-86
2022/10/20 05:09:42;;;;;;;27.07;23.20;;;11.80;99.90;;;;;;6155292;23;20496;-86
2022/10/20 05:12:09;;;;;;;24.93;20.20;;;11.80;99.90;;;;;;6155511;23;20461;-86
2022/10/20 05:14:36;;;;;;;25.33;20.03;;;11.80;99.90;;;;;;6160464;23;20455;-82
2022/10/20 05:17:03;;;;;;;25.23;20.80;;;11.80;99.90;;;;;;6162906;23;20402;-82
2022/10/20 05:19:30;;;;;;;24.03;18.53;;;11.80;99.90;;;;;;6162821;23;20419;-82
2022/10/20 05:21:57;;;;;;;26.30;20.93;;;11.80;99.90;;;;;;6163627;23;21155;-82
2022/10/20 05:24:25;;;;;;;26.93;21.70;;;11.80;99.90;;;;;;6162809;23;20507;-82
2022/10/20 05:26:54;;;;;;;29.27;19.70;;;11.70;99.90;;;;;;6163082;23;20717;-83
2022/10/20 05:29:20;;;;;;;26.63;18.67;;;11.70;99.90;;;;;;6162171;23;20424;-82
2022/10/20 05:31:47;;;;;;;25.40;19.27;;;11.70;99.90;;;;;;6163360;23;20452;-82
2022/10/20 05:34:14;;;;;;;25.07;20.10;;;11.70;99.90;;;;;;6162761;23;20432;-82
2022/10/20 05:36:41;;;;;;;30.00;17.27;;;11.70;99.90;;;;;;6163330;23;20414;-82
2022/10/20 05:39:07;;;;;;;23.20;17.20;;;11.70;99.90;;;;;;6163504;23;20409;-82
2022/10/20 05:41:35;;;;;;;25.30;20.10;;;11.60;99.90;;;;;;6170565;23;20480;-82
2022/10/20 05:44:04;;;;;;;26.50;19.57;;;11.60;99.90;;;;;;6162820;23;20982;-82
2022/10/20 05:46:34;;;;;;;30.27;18.97;;;11.60;99.90;;;;;;6161992;23;20410;-82
2022/10/20 05:49:02;;;;;;;25.53;18.60;;;11.50;99.90;;;;;;6163760;23;20518;-85
2022/10/20 05:51:31;;;;;;;22.93;16.77;;;11.50;99.90;;;;;;6162578;23;20417;-85
2022/10/20 05:57:29;;;;;;;25.53;17.70;;;11.50;99.90;;;;;;6169057;23;20352;-86
2022/10/20 06:10:07;;;;;;;26.53;19.40;;;11.40;99.90;;;;;;6032277;23;20483;-82
2022/10/20 06:12:36;;;;;;;26.10;20.50;;;11.30;99.90;;;;;;6039299;23;20425;-84
2022/10/20 06:15:03;;;;;;;29.17;20.77;;;11.30;99.90;;;;;;6155653;23;20446;-83
2022/10/20 06:17:30;;;;;;;29.37;21.20;;;11.20;99.90;;;;;;6156337;23;21054;-83
2022/10/20 06:19:57;;;;;;;27.00;20.23;;;11.20;99.90;;;;;;6154088;23;20428;-83
2022/10/20 06:22:23;;;;;;;27.10;18.97;;;11.20;99.90;;;;;;6155686;23;20418;-81
2022/10/20 06:24:50;;;;;;;28.73;20.30;;;11.40;99.90;;;;;;6153430;23;21121;-82
2022/10/20 06:27:17;;;;;;;27.30;21.00;;;11.40;99.90;;;;;;6161024;23;20419;-80
2022/10/20 06:29:45;;;;;;;29.73;22.43;;;11.50;99.90;;;;;;6171036;23;20414;-80
2022/10/20 06:32:12;;;;;;;23.33;20.63;;;11.50;99.90;;;;;;6167090;23;20477;-79
2022/10/20 06:34:39;;;;;;;26.90;23.07;;;11.60;99.90;;;;;;6169486;23;20429;-82
2022/10/20 06:37:06;;;;;;;29.47;19.67;;;11.60;99.90;;;;;;6157891;23;20955;-82
2022/10/20 06:39:33;;;;;;;25.40;19.77;;;11.70;99.90;;;;;;6156059;23;20421;-82
2022/10/20 06:42:00;;;;;;;28.70;22.23;;;11.70;99.90;;;;;;6157866;23;20422;-83
2022/10/20 06:44:28;;;;;;;25.90;17.00;;;11.80;99.90;;;;;;6164450;23;20458;-80
2022/10/20 06:46:56;;;;;;;21.63;17.97;;;11.80;99.90;;;;;;6162132;23;20414;-82
2022/10/20 06:49:27;;;;;;;20.93;18.30;;;11.90;99.90;;;;;;6162422;23;20432;-83
2022/10/20 06:51:58;;;;;;;17.27;15.30;;;12.00;99.90;;;;;;6162488;23;20419;-83
2022/10/20 06:54:38;;;;;;;25.60;18.00;;;12.00;99.90;;;;;;6162575;23;20749;-83
2022/10/20 07:00:22;;;;;;;20.43;16.90;;;12.20;99.90;;;;;;6160929;23;20876;-85
2022/10/20 07:02:50;;;;;;;23.20;17.27;;;12.20;99.90;;;;;;6164775;23;20493;-85
2022/10/20 07:06:08;;;;;;;19.73;16.70;;;12.20;99.90;;;;;;6163164;23;20428;-83
2022/10/20 07:13:13;;;;;;;20.23;16.67;;;12.40;99.90;;;;;;6054363;23;20405;-83
2022/10/20 07:15:39;;;;;;;18.73;16.20;;;12.50;99.90;;;;;;6082084;23;21727;-84
2022/10/20 07:18:07;;;;;;;20.70;16.17;;;12.50;99.90;;;;;;6161856;23;20415;-83
2022/10/20 07:20:34;;;;;;;23.47;16.53;;;12.60;99.90;;;;;;6160404;23;20420;-84
2022/10/20 07:23:01;;;;;;;18.87;14.27;;;12.70;99.90;;;;;;6161491;23;20452;-82
2022/10/20 07:29:30;;;;;;;22.77;17.10;;;12.70;99.90;;;;;;5962947;23;20431;-84
2022/10/20 07:37:51;;;;;;;18.50;14.53;;;12.80;99.90;;;;;;6146333;23;20461;-83
2022/10/20 07:40:55;;;;;;;16.70;14.93;;;12.90;99.90;;;;;;6157886;23;20403;-85
2022/10/20 07:43:22;;;;;;;19.10;14.53;;;13.00;99.90;;;;;;6130019;23;20537;-83
2022/10/20 07:45:49;;;;;;;17.50;14.70;;;13.10;99.90;;;;;;6160283;23;20749;-83
2022/10/20 07:48:25;;;;;;;15.23;13.67;;;13.20;99.90;;;;;;6160072;23;20418;-83
2022/10/20 07:50:51;;;;;;;20.43;12.30;;;13.30;99.90;;;;;;6162302;23;20383;-83
2022/10/20 07:53:20;;;;;;;17.83;16.10;;;13.40;99.90;;;;;;6161686;23;20427;-84
2022/10/20 07:55:46;;;;;;;12.37;11.10;;;13.50;99.90;;;;;;6161385;23;20417;-83
2022/10/20 07:58:13;;;;;;;12.87;11.50;;;13.60;99.90;;;;;;6162320;23;20421;-84
2022/10/20 08:00:40;;;;;;;14.60;12.27;;;13.70;99.90;;;;;;6163144;23;20886;-83
2022/10/20 08:03:09;;;;;;;12.97;11.57;;;13.80;99.90;;;;;;6162329;23;20426;-83
2022/10/20 08:05:41;;;;;;;15.77;12.27;;;13.90;99.90;;;;;;6161433;23;20722;-84
2022/10/20 08:08:10;;;;;;;14.00;11.17;;;13.90;99.90;;;;;;6160156;23;20882;-84
2022/10/20 08:10:39;;;;;;;11.97;10.77;;;13.90;99.90;;;;;;6158758;23;20420;-84
2022/10/20 08:29:39;;;;;;;13.97;10.90;;;14.50;99.90;;;;;;5993040;23;20462;-85
2022/10/20 08:32:07;;;;;;;14.87;12.10;;;14.50;99.90;;;;;;5992169;23;20408;-83
2022/10/20 08:34:34;;;;;;;12.70;11.40;;;14.60;99.90;;;;;;6158231;23;20517;-83
2022/10/20 08:37:01;;;;;;;12.27;11.07;;;14.70;99.90;;;;;;6163726;23;20417;-81
2022/10/20 08:39:28;;;;;;;13.93;12.53;;;14.70;99.90;;;;;;6162017;23;20878;-81
2022/10/20 08:41:56;;;;;;;12.90;10.07;;;14.80;99.90;;;;;;6163427;23;20407;-81
2022/10/20 08:44:26;;;;;;;12.17;11.00;;;15.00;99.90;;;;;;6162930;23;20457;-80
2022/10/20 08:46:53;;;;;;;12.30;11.00;;;15.00;99.90;;;;;;6162894;23;20395;-81
2022/10/20 08:49:26;;;;;;;12.53;11.17;;;15.20;99.90;;;;;;6162671;23;20411;-81
2022/10/20 08:51:53;;;;;;;12.10;10.80;;;15.30;99.90;;;;;;6163084;23;20399;-82
2022/10/20 08:54:20;;;;;;;11.67;9.67;;;15.40;99.90;;;;;;6162560;23;20433;-82
2022/10/20 08:56:47;;;;;;;13.13;10.23;;;15.50;99.90;;;;;;6163597;23;20419;-82
2022/10/20 08:59:26;;;;;;;12.67;10.63;;;15.60;99.90;;;;;;6163606;23;20410;-82
2022/10/20 09:01:54;;;;;;;10.87;9.77;;;15.70;99.90;;;;;;6163074;23;20399;-81
2022/10/20 09:04:24;;;;;;;12.17;10.67;;;15.80;99.90;;;;;;6162452;23;20461;-82
2022/10/20 09:06:56;;;;;;;10.60;9.70;;;15.90;99.90;;;;;;6162242;23;20399;-82
2022/10/20 09:09:24;;;;;;;12.50;9.17;;;16.00;99.90;;;;;;6162460;23;20395;-82
2022/10/20 09:11:52;;;;;;;12.70;10.23;;;16.20;99.90;;;;;;6163112;23;20412;-82
2022/10/20 09:14:19;;;;;;;11.17;10.07;;;16.30;99.90;;;;;;6166662;23;20442;-80
2022/10/20 09:16:47;;;;;;;10.60;8.93;;;16.40;99.90;;;;;;6168418;23;20418;-82
2022/10/20 09:19:17;;;;;;;10.10;8.83;;;16.50;99.90;;;;;;6162943;23;20418;-82
2022/10/20 09:21:49;;;;;;;13.13;10.13;;;16.70;99.90;;;;;;6163461;23;20411;-81
2022/10/20 09:24:17;;;;;;;10.37;8.93;;;16.80;99.90;;;;;;6163273;23;20456;-81
2022/10/20 09:26:46;;;;;;;9.40;8.50;;;16.90;99.90;;;;;;6163324;23;20412;-82
2022/10/20 09:29:15;;;;;;;8.60;7.80;;;16.90;99.90;;;;;;6163024;23;20422;-82
2022/10/20 09:31:44;;;;;;;7.70;6.90;;;17.00;99.90;;;;;;6163626;23;20412;-82
2022/10/20 09:34:25;;;;;;;10.50;8.80;;;17.00;99.90;;;;;;6162736;23;20427;-82
2022/10/20 09:36:59;;;;;;;10.23;9.33;;;17.10;99.90;;;;;;6163038;23;20406;-81
2022/10/20 09:39:29;;;;;;;8.60;7.73;;;17.10;99.90;;;;;;6163367;23;21016;-82
2022/10/20 09:42:02;;;;;;;9.97;8.97;;;17.20;99.90;;;;;;6162084;23;20416;-82
2022/10/20 09:44:32;;;;;;;8.83;8.13;;;17.20;99.90;;;;;;6162534;23;20451;-81
2022/10/20 09:47:01;;;;;;;8.77;7.97;;;17.30;99.90;;;;;;6162143;23;20397;-81
2022/10/20 09:49:30;;;;;;;8.30;7.60;;;17.40;99.90;;;;;;6161128;23;20957;-82
2022/10/20 09:52:01;;;;;;;8.27;7.50;;;17.50;99.90;;;;;;6162882;23;20425;-82
2022/10/20 09:54:29;;;;;;;7.47;6.73;;;17.50;99.90;;;;;;6163192;23;20439;-82
2022/10/20 09:57:05;;;;;;;8.30;7.17;;;17.50;99.90;;;;;;6162284;23;20432;-82
2022/10/20 09:59:40;;;;;;;7.50;6.80;;;17.40;99.90;;;;;;6162584;23;20388;-82
2022/10/20 10:02:28;;;;;;;10.53;7.07;;;17.50;99.90;;;;;;6163262;23;20397;-82
2022/10/20 10:05:11;;;;;;;7.93;7.00;;;17.50;99.90;;;;;;6163293;23;20462;-82
2022/10/20 10:07:40;;;;;;;7.57;7.03;;;17.60;99.90;;;;;;6162959;23;20402;-81
2022/10/20 10:10:26;;;;;;;8.23;7.73;;;17.60;99.90;;;;;;6170274;23;20398;-82
2022/10/20 10:12:54;;;;;;;7.33;6.60;;;17.70;99.90;;;;;;6163269;23;20402;-82
2022/10/20 10:15:28;;;;;;;6.47;5.60;;;17.90;99.90;;;;;;6162010;23;20401;-82
2022/10/20 10:17:56;;;;;;;9.83;6.13;;;17.90;99.90;;;;;;6162420;23;20395;-82
2022/10/20 10:20:34;;;;;;;6.63;6.10;;;18.00;99.90;;;;;;6162208;23;20424;-82
2022/10/20 10:23:22;;;;;;;7.20;6.60;;;18.10;99.90;;;;;;6163378;23;20410;-82
2022/10/20 10:25:50;;;;;;;6.10;5.60;;;18.00;99.90;;;;;;6158338;23;20430;-79
2022/10/20 10:28:30;;;;;;;7.77;5.57;;;18.00;99.90;;;;;;6159894;23;20417;-80
2022/10/20 10:31:19;;;;;;;6.30;5.80;;;17.90;99.90;;;;;;6160190;23;20398;-79
2022/10/20 10:33:46;;;;;;;6.20;5.60;;;18.00;99.90;;;;;;6160229;23;20441;-83
2022/10/20 10:36:21;;;;;;;7.30;5.83;;;18.20;99.90;;;;;;6160578;23;20414;-83
2022/10/20 10:38:49;;;;;;;6.10;5.50;;;18.50;99.90;;;;;;6159736;23;20398;-83
2022/10/20 10:41:25;;;;;;;6.93;5.63;;;18.60;99.90;;;;;;6161570;23;20423;-83
2022/10/20 10:44:00;;;;;;;5.93;5.43;;;18.80;99.90;;;;;;6160940;23;20435;-83
2022/10/20 10:46:35;;;;;;;8.63;6.20;;;18.90;99.90;;;;;;6161755;23;20405;-84
2022/10/20 10:49:27;;;;;;;6.80;5.67;;;19.00;99.90;;;;;;6161373;23;20397;-83
2022/10/20 10:52:03;;;;;;;6.17;5.67;;;19.10;99.90;;;;;;6160432;23;20401;-83
2022/10/20 10:54:50;;;;;;;6.30;5.80;;;19.00;99.90;;;;;;6160923;23;20772;-83
2022/10/20 10:57:26;;;;;;;6.20;5.60;;;18.90;99.90;;;;;;6161361;23;20397;-83
2022/10/20 10:59:53;;;;;;;6.40;5.83;;;18.90;99.90;;;;;;6161404;23;20408;-84
2022/10/20 11:02:58;;;;;;;5.30;4.93;;;18.90;99.90;;;;;;6161294;23;20500;-84
2022/10/20 11:05:50;;;;;;;5.83;5.33;;;18.90;99.90;;;;;;6170997;23;20468;-83
2022/10/20 11:08:31;;;;;;;6.20;5.60;;;18.80;99.90;;;;;;6163103;23;20399;-84
2022/10/20 11:11:12;;;;;;;7.07;5.43;;;18.90;99.90;;;;;;6163544;23;20412;-83
2022/10/20 11:30:14;;;;;;;5.83;5.30;;;19.50;99.90;;;;;;6188644;23;20418;-86
2022/10/20 11:33:41;;;;;;;5.83;5.20;;;19.70;99.90;;;;;;6188279;23;20428;-88
2022/10/20 11:41:08;;;;;;;6.57;5.80;;;19.80;99.90;;;;;;6150818;23;20997;-89
2022/10/20 11:44:08;;;;;;;5.63;5.17;;;19.80;99.90;;;;;;6172192;23;20489;-87
2022/10/20 11:46:49;;;;;;;6.13;5.63;;;19.80;99.90;;;;;;6175683;23;20421;-88
2022/10/20 11:49:16;;;;;;;6.73;5.67;;;19.70;99.90;;;;;;6160201;23;20398;-88
2022/10/20 11:52:15;;;;;;;5.93;5.43;;;19.60;99.90;;;;;;6159465;23;20486;-85
2022/10/20 11:55:15;;;;;;;5.90;5.30;;;19.60;99.90;;;;;;6099482;23;20476;-88
2022/10/20 11:57:52;;;;;;;8.43;7.30;;;19.60;99.90;;;;;;6148371;23;20420;-84
2022/10/20 12:01:05;;;;;;;16.33;14.83;;;19.60;99.90;;;;;;6159184;23;20453;-86
2022/10/20 12:07:36;;;;;;;6.47;5.90;;;19.50;99.90;;;;;;6156293;23;20405;-87
2022/10/20 12:13:36;;;;;;;35.37;29.50;;;19.30;99.90;;;;;;6145744;23;20437;-83
2022/10/20 12:16:02;;;;;;;21.60;18.47;;;19.20;99.90;;;;;;6127553;23;20447;-83
2022/10/20 12:18:31;;;;;;;18.30;16.60;;;19.10;99.90;;;;;;6129367;23;20415;-84
2022/10/20 12:28:48;;;;;;;10.57;9.57;;;19.00;99.90;;;;;;5947666;23;20499;-87
2022/10/20 12:31:24;;;;;;;8.90;7.50;;;19.00;99.90;;;;;;6099756;23;20425;-84
2022/10/20 12:34:40;;;;;;;10.40;6.57;;;19.00;99.90;;;;;;6156626;23;20536;-85
2022/10/20 12:37:15;;;;;;;7.30;6.70;;;19.10;99.90;;;;;;6129844;23;20476;-88
2022/10/20 12:39:43;;;;;;;14.23;13.00;;;19.10;99.90;;;;;;6156128;23;20401;-86
2022/10/20 12:42:20;;;;;;;17.57;15.60;;;19.10;99.90;;;;;;6158720;23;20988;-86
2022/10/20 12:44:49;;;;;;;19.73;17.80;;;19.20;99.90;;;;;;6156874;23;20851;-86
2022/10/20 12:47:21;;;;;;;37.90;33.80;;;19.30;99.90;;;;;;6157816;23;20798;-87
2022/10/20 12:50:02;;;;;;;22.50;20.30;;;19.30;99.90;;;;;;6158015;23;20413;-89
2022/10/20 12:52:57;;;;;;;13.40;12.20;;;19.30;99.90;;;;;;6159566;23;20424;-90
2022/10/20 12:55:31;;;;;;;10.30;9.40;;;19.20;99.90;;;;;;6146111;23;20460;-87
2022/10/20 12:58:11;;;;;;;22.77;20.40;;;19.20;99.90;;;;;;6155848;23;21272;-87
2022/10/20 13:01:10;;;;;;;40.77;36.37;;;19.10;99.90;;;;;;6160215;23;20403;-86
2022/10/20 13:03:48;;;;;;;36.67;32.67;;;19.10;99.90;;;;;;6159424;23;20615;-88
2022/10/20 13:06:41;;;;;;;35.70;32.07;;;19.00;99.90;;;;;;6160446;23;20458;-85
2022/10/20 13:09:23;;;;;;;26.93;24.17;;;19.00;99.90;;;;;;6160517;23;20409;-84
2022/10/20 13:11:57;;;;;;;24.90;22.20;;;19.00;99.90;;;;;;6160587;23;20401;-85
2022/10/20 13:14:41;;;;;;;24.77;21.97;;;18.90;99.90;;;;;;6160126;23;20725;-86
2022/10/20 13:17:30;;;;;;;17.13;15.53;;;18.80;99.90;;;;;;6159011;23;20725;-86
2022/10/20 13:20:01;;;;;;;11.57;10.37;;;18.80;99.90;;;;;;6159812;23;20485;-85
2022/10/20 13:22:38;;;;;;;9.37;8.43;;;18.70;99.90;;;;;;6159220;23;20489;-84
2022/10/20 13:25:16;;;;;;;10.80;9.80;;;18.70;99.90;;;;;;6159632;23;20436;-85
2022/10/20 13:27:43;;;;;;;8.70;8.07;;;18.60;99.90;;;;;;6158597;23;20402;-86
2022/10/20 13:30:18;;;;;;;18.90;17.20;;;18.60;99.90;;;;;;6158742;23;20414;-85
2022/10/20 13:32:54;;;;;;;24.40;20.70;;;18.50;99.90;;;;;;6161041;23;20411;-86
2022/10/20 13:35:27;;;;;;;21.70;19.43;;;18.50;99.90;;;;;;6158847;23;20457;-86
2022/10/20 13:38:00;;;;;;;30.40;27.10;;;18.50;99.90;;;;;;6158558;23;20404;-84
2022/10/20 13:40:42;;;;;;;20.87;19.07;;;18.50;99.90;;;;;;6158901;23;20877;-83
2022/10/20 13:43:27;;;;;;;13.23;11.90;;;18.60;99.90;;;;;;6159776;23;20888;-85
2022/10/20 13:46:10;;;;;;;13.33;9.93;;;18.60;99.90;;;;;;6159417;23;20394;-85
2022/10/20 13:49:10;;;;;;;8.20;7.37;;;18.70;99.90;;;;;;6158178;23;20458;-84
2022/10/20 13:51:47;;;;;;;8.40;7.37;;;18.50;99.90;;;;;;6159240;23;20425;-86
2022/10/20 13:54:57;;;;;;;8.80;6.90;;;18.50;99.90;;;;;;6130600;23;20772;-87
2022/10/20 13:57:27;;;;;;;6.90;6.23;;;18.60;99.90;;;;;;6158747;23;20420;-86
2022/10/20 13:59:59;;;;;;;7.80;7.20;;;18.70;99.90;;;;;;6157581;23;20881;-87
2022/10/20 14:02:28;;;;;;;6.93;6.43;;;18.70;99.90;;;;;;6161210;23;20468;-87
2022/10/20 14:05:10;;;;;;;6.73;6.23;;;18.80;99.90;;;;;;6157139;23;20426;-86
2022/10/20 14:07:39;;;;;;;7.13;6.53;;;18.80;99.90;;;;;;6159652;23;20442;-85
2022/10/20 14:10:06;;;;;;;8.67;7.57;;;18.70;99.90;;;;;;6160942;23;20422;-85
2022/10/20 14:12:34;;;;;;;6.80;6.20;;;18.70;99.90;;;;;;6156983;23;20901;-85
2022/10/20 14:15:10;;;;;;;7.97;6.60;;;18.60;99.90;;;;;;6155318;23;20521;-88
2022/10/20 14:17:37;;;;;;;7.73;7.07;;;18.60;99.90;;;;;;6155816;23;20433;-86
2022/10/20 14:20:28;;;;;;;7.90;7.20;;;18.60;99.90;;;;;;6154757;23;20429;-86
2022/10/20 14:22:57;;;;;;;7.27;6.57;;;18.60;99.90;;;;;;6146637;23;20421;-86
2022/10/20 14:25:24;;;;;;;6.90;6.27;;;18.50;99.90;;;;;;6154355;23;21264;-86
2022/10/20 14:27:53;;;;;;;7.83;6.70;;;18.50;99.90;;;;;;6154147;23;20513;-86